LBQ420 KGJT-KSLC
Flight info
| Callsign | LBQ420 |
|---|---|
| Flight time | 1h 3m |
| Altitude | 24000 |
| Route | JNC J12 HELPR SPANE8 |
| Aircraft | PC12/L-SDFGRWY/S |
Departure
| Time | 2026-04-24 03:47 |
|---|---|
| Airport | Grand Junction Regional Airport (KGJT) |
Arrival
| Time | 2026-04-24 04:50 |
|---|---|
| Airport | Salt Lake City International Airport (KSLC) |
| Time | Latitude | Longitude | Altitude | Speed | Heading |
|---|---|---|---|---|---|
| 2026-04-24 03:30 | 39.12108 | -108.52317 | 4842 ft | 0 kts | 306° |
| 2026-04-24 03:45 | 39.12127 | -108.52333 | 4843 ft | 7 kts | 13° |
| 2026-04-24 03:45 | 39.12170 | -108.52294 | 4846 ft | 7 kts | 51° |
| 2026-04-24 03:45 | 39.12145 | -108.52219 | 4847 ft | 13 kts | 125° |
| 2026-04-24 03:46 | 39.12079 | -108.52103 | 4846 ft | 16 kts | 127° |
| 2026-04-24 03:46 | 39.12071 | -108.52020 | 4848 ft | 13 kts | 37° |
| 2026-04-24 03:46 | 39.12154 | -108.51993 | 4854 ft | 9 kts | 302° |
| 2026-04-24 03:46 | 39.12201 | -108.52077 | 4853 ft | 25 kts | 307° |
| 2026-04-24 03:47 | 39.12390 | -108.52421 | 4855 ft | 70 kts | 304° |
| 2026-04-24 03:47 | 39.12759 | -108.53063 | 4848 ft | 106 kts | 305° |
| 2026-04-24 03:47 | 39.13226 | -108.53922 | 4980 ft | 125 kts | 304° |
| 2026-04-24 03:47 | 39.13741 | -108.54784 | 5509 ft | 119 kts | 308° |
| 2026-04-24 03:48 | 39.14299 | -108.55600 | 5904 ft | 124 kts | 310° |
| 2026-04-24 03:48 | 39.14860 | -108.56428 | 6344 ft | 119 kts | 303° |
| 2026-04-24 03:48 | 39.15189 | -108.57374 | 6728 ft | 115 kts | 277° |
| 2026-04-24 03:48 | 39.15046 | -108.58362 | 7088 ft | 114 kts | 243° |
| 2026-04-24 03:49 | 39.14778 | -108.58948 | 7335 ft | 115 kts | 240° |
| 2026-04-24 03:49 | 39.14209 | -108.60150 | 7842 ft | 118 kts | 242° |
| 2026-04-24 03:49 | 39.13804 | -108.61096 | 8204 ft | 123 kts | 245° |
| 2026-04-24 03:49 | 39.13438 | -108.62077 | 8659 ft | 119 kts | 246° |
| 2026-04-24 03:50 | 39.13214 | -108.62723 | 8935 ft | 120 kts | 248° |
| 2026-04-24 03:50 | 39.12774 | -108.63635 | 9353 ft | 121 kts | 238° |
| 2026-04-24 03:50 | 39.12184 | -108.64868 | 9927 ft | 120 kts | 244° |
| 2026-04-24 03:50 | 39.11912 | -108.65506 | 10206 ft | 122 kts | 244° |
| 2026-04-24 03:51 | 39.11501 | -108.66462 | 10672 ft | 122 kts | 245° |
| 2026-04-24 03:51 | 39.11088 | -108.67420 | 11125 ft | 123 kts | 245° |
| 2026-04-24 03:51 | 39.10669 | -108.68390 | 11591 ft | 124 kts | 245° |
| 2026-04-24 03:51 | 39.10250 | -108.69356 | 12056 ft | 126 kts | 246° |
| 2026-04-24 03:52 | 39.09821 | -108.70348 | 12521 ft | 127 kts | 246° |
| 2026-04-24 03:52 | 39.09389 | -108.71343 | 13019 ft | 128 kts | 246° |
| 2026-04-24 03:52 | 39.08952 | -108.72352 | 13497 ft | 130 kts | 247° |
| 2026-04-24 03:52 | 39.08508 | -108.73375 | 13954 ft | 131 kts | 247° |
| 2026-04-24 03:53 | 39.08065 | -108.74396 | 14404 ft | 131 kts | 248° |
| 2026-04-24 03:53 | 39.07619 | -108.75423 | 14810 ft | 132 kts | 248° |
| 2026-04-24 03:53 | 39.07169 | -108.76458 | 15279 ft | 135 kts | 248° |
| 2026-04-24 03:53 | 39.06699 | -108.77548 | 15658 ft | 144 kts | 248° |
| 2026-04-24 03:54 | 39.06266 | -108.78733 | 16046 ft | 146 kts | 264° |
| 2026-04-24 03:54 | 39.06300 | -108.80008 | 16445 ft | 147 kts | 289° |
| 2026-04-24 03:54 | 39.06746 | -108.81213 | 16856 ft | 152 kts | 298° |
| 2026-04-24 03:54 | 39.07247 | -108.82439 | 17253 ft | 158 kts | 297° |
| 2026-04-24 03:55 | 39.07764 | -108.83714 | 17649 ft | 162 kts | 298° |
| 2026-04-24 03:55 | 39.08293 | -108.85015 | 18060 ft | 165 kts | 298° |
| 2026-04-24 03:55 | 39.08831 | -108.86339 | 18432 ft | 169 kts | 298° |
| 2026-04-24 03:55 | 39.09376 | -108.87683 | 18853 ft | 168 kts | 297° |
| 2026-04-24 03:56 | 39.09924 | -108.89034 | 19199 ft | 171 kts | 297° |
| 2026-04-24 03:56 | 39.10473 | -108.90389 | 19598 ft | 171 kts | 297° |
| 2026-04-24 03:56 | 39.11021 | -108.91744 | 19984 ft | 171 kts | 297° |
| 2026-04-24 03:56 | 39.11565 | -108.93086 | 20375 ft | 171 kts | 297° |
| 2026-04-24 03:57 | 39.12116 | -108.94448 | 20766 ft | 172 kts | 297° |
| 2026-04-24 03:57 | 39.12669 | -108.95816 | 21160 ft | 172 kts | 297° |
| 2026-04-24 03:57 | 39.13224 | -108.97187 | 21561 ft | 173 kts | 297° |
| 2026-04-24 03:57 | 39.13778 | -108.98559 | 21970 ft | 173 kts | 297° |
| 2026-04-24 03:58 | 39.14335 | -108.99936 | 22318 ft | 173 kts | 296° |
| 2026-04-24 03:58 | 39.14891 | -109.01314 | 22595 ft | 174 kts | 296° |
| 2026-04-24 03:58 | 39.15451 | -109.02700 | 22899 ft | 174 kts | 296° |
| 2026-04-24 03:58 | 39.16012 | -109.04090 | 23196 ft | 175 kts | 296° |
| 2026-04-24 03:59 | 39.16575 | -109.05488 | 23468 ft | 176 kts | 296° |
| 2026-04-24 03:59 | 39.17139 | -109.06886 | 23744 ft | 176 kts | 296° |
| 2026-04-24 03:59 | 39.17703 | -109.08286 | 23882 ft | 183 kts | 296° |
| 2026-04-24 03:59 | 39.18308 | -109.09790 | 23886 ft | 195 kts | 296° |
| 2026-04-24 04:00 | 39.18949 | -109.11380 | 23891 ft | 204 kts | 296° |
| 2026-04-24 04:00 | 39.19618 | -109.13039 | 23893 ft | 212 kts | 296° |
| 2026-04-24 04:00 | 39.20309 | -109.14754 | 23896 ft | 218 kts | 296° |
| 2026-04-24 04:00 | 39.21016 | -109.16512 | 23898 ft | 223 kts | 296° |
| 2026-04-24 04:01 | 39.21734 | -109.18300 | 23899 ft | 227 kts | 296° |
| 2026-04-24 04:01 | 39.22464 | -109.20119 | 23900 ft | 229 kts | 296° |
| 2026-04-24 04:01 | 39.23202 | -109.21959 | 23901 ft | 232 kts | 296° |
| 2026-04-24 04:01 | 39.23933 | -109.23786 | 23899 ft | 233 kts | 296° |
| 2026-04-24 04:02 | 39.24678 | -109.25647 | 23904 ft | 234 kts | 296° |
| 2026-04-24 04:02 | 39.25428 | -109.27518 | 23903 ft | 235 kts | 296° |
| 2026-04-24 04:02 | 39.26178 | -109.29395 | 23905 ft | 236 kts | 296° |
| 2026-04-24 04:02 | 39.26931 | -109.31277 | 23908 ft | 236 kts | 296° |
| 2026-04-24 04:03 | 39.27686 | -109.33168 | 23912 ft | 238 kts | 296° |
| 2026-04-24 04:03 | 39.28445 | -109.35070 | 23912 ft | 239 kts | 296° |
| 2026-04-24 04:03 | 39.29207 | -109.36978 | 23911 ft | 239 kts | 296° |
| 2026-04-24 04:03 | 39.29969 | -109.38889 | 23911 ft | 240 kts | 296° |
| 2026-04-24 04:04 | 39.30735 | -109.40810 | 23920 ft | 240 kts | 296° |
| 2026-04-24 04:04 | 39.31490 | -109.42708 | 23916 ft | 241 kts | 296° |
| 2026-04-24 04:04 | 39.32255 | -109.44631 | 23919 ft | 241 kts | 296° |
| 2026-04-24 04:04 | 39.33022 | -109.46559 | 23906 ft | 241 kts | 296° |
| 2026-04-24 04:05 | 39.33789 | -109.48490 | 23910 ft | 241 kts | 296° |
| 2026-04-24 04:05 | 39.34551 | -109.50414 | 23910 ft | 241 kts | 296° |
| 2026-04-24 04:05 | 39.35316 | -109.52340 | 23910 ft | 241 kts | 296° |
| 2026-04-24 04:05 | 39.36081 | -109.54265 | 23915 ft | 240 kts | 296° |
| 2026-04-24 04:06 | 39.36843 | -109.56182 | 23918 ft | 240 kts | 296° |
| 2026-04-24 04:06 | 39.37603 | -109.58102 | 23919 ft | 241 kts | 296° |
| 2026-04-24 04:06 | 39.38368 | -109.60035 | 23917 ft | 241 kts | 296° |
| 2026-04-24 04:06 | 39.39132 | -109.61962 | 23917 ft | 241 kts | 296° |
| 2026-04-24 04:07 | 39.39894 | -109.63893 | 23922 ft | 241 kts | 296° |
| 2026-04-24 04:07 | 39.40655 | -109.65824 | 23925 ft | 242 kts | 296° |
| 2026-04-24 04:07 | 39.41409 | -109.67736 | 23929 ft | 241 kts | 296° |
| 2026-04-24 04:07 | 39.42173 | -109.69663 | 23929 ft | 241 kts | 296° |
| 2026-04-24 04:08 | 39.42935 | -109.71595 | 23937 ft | 241 kts | 296° |
| 2026-04-24 04:08 | 39.43697 | -109.73527 | 23938 ft | 241 kts | 296° |
| 2026-04-24 04:08 | 39.44459 | -109.75462 | 23932 ft | 241 kts | 296° |
| 2026-04-24 04:08 | 39.45220 | -109.77393 | 23938 ft | 241 kts | 296° |
| 2026-04-24 04:09 | 39.45981 | -109.79327 | 23941 ft | 241 kts | 296° |
| 2026-04-24 04:09 | 39.46743 | -109.81265 | 23925 ft | 241 kts | 296° |
| 2026-04-24 04:09 | 39.47503 | -109.83201 | 23927 ft | 242 kts | 296° |
| 2026-04-24 04:09 | 39.48265 | -109.85141 | 23925 ft | 242 kts | 296° |
| 2026-04-24 04:10 | 39.49028 | -109.87083 | 23927 ft | 242 kts | 296° |
| 2026-04-24 04:10 | 39.49788 | -109.89021 | 23926 ft | 241 kts | 296° |
| 2026-04-24 04:10 | 39.50550 | -109.90964 | 23929 ft | 242 kts | 296° |
| 2026-04-24 04:11 | 39.52062 | -109.94823 | 23939 ft | 241 kts | 296° |
| 2026-04-24 04:11 | 39.52821 | -109.96761 | 23945 ft | 241 kts | 296° |
| 2026-04-24 04:11 | 39.53578 | -109.98697 | 23945 ft | 241 kts | 296° |
| 2026-04-24 04:11 | 39.54338 | -110.00641 | 23941 ft | 241 kts | 296° |
| 2026-04-24 04:12 | 39.55099 | -110.02588 | 23943 ft | 243 kts | 296° |
| 2026-04-24 04:12 | 39.55858 | -110.04535 | 23938 ft | 242 kts | 296° |
| 2026-04-24 04:12 | 39.56617 | -110.06481 | 23934 ft | 242 kts | 296° |
| 2026-04-24 04:12 | 39.57376 | -110.08427 | 23965 ft | 241 kts | 296° |
| 2026-04-24 04:13 | 39.58136 | -110.10374 | 23957 ft | 241 kts | 296° |
| 2026-04-24 04:13 | 39.58882 | -110.12289 | 23957 ft | 241 kts | 296° |
| 2026-04-24 04:13 | 39.59636 | -110.14227 | 23942 ft | 241 kts | 296° |
| 2026-04-24 04:13 | 39.60393 | -110.16174 | 23941 ft | 242 kts | 296° |
| 2026-04-24 04:14 | 39.61151 | -110.18126 | 23942 ft | 242 kts | 296° |
| 2026-04-24 04:14 | 39.61909 | -110.20077 | 23944 ft | 242 kts | 296° |
| 2026-04-24 04:14 | 39.62664 | -110.22023 | 23956 ft | 242 kts | 296° |
| 2026-04-24 04:14 | 39.63422 | -110.23976 | 23961 ft | 242 kts | 296° |
| 2026-04-24 04:15 | 39.64177 | -110.25924 | 23960 ft | 242 kts | 296° |
| 2026-04-24 04:15 | 39.64934 | -110.27879 | 23962 ft | 242 kts | 296° |
| 2026-04-24 04:15 | 39.65689 | -110.29827 | 23962 ft | 241 kts | 296° |
| 2026-04-24 04:15 | 39.66441 | -110.31774 | 23963 ft | 241 kts | 296° |
| 2026-04-24 04:16 | 39.67185 | -110.33699 | 23956 ft | 242 kts | 296° |
| 2026-04-24 04:16 | 39.67951 | -110.35680 | 23878 ft | 244 kts | 296° |
| 2026-04-24 04:16 | 39.68718 | -110.37668 | 23764 ft | 248 kts | 296° |
| 2026-04-24 04:16 | 39.69495 | -110.39682 | 23657 ft | 251 kts | 296° |
| 2026-04-24 04:17 | 39.70270 | -110.41692 | 23543 ft | 253 kts | 296° |
| 2026-04-24 04:17 | 39.71065 | -110.43752 | 23345 ft | 255 kts | 296° |
| 2026-04-24 04:17 | 39.71862 | -110.45820 | 23167 ft | 256 kts | 296° |
| 2026-04-24 04:17 | 39.72657 | -110.47887 | 22962 ft | 255 kts | 296° |
| 2026-04-24 04:18 | 39.73448 | -110.49950 | 22782 ft | 255 kts | 296° |
| 2026-04-24 04:18 | 39.74239 | -110.52013 | 22588 ft | 256 kts | 296° |
| 2026-04-24 04:18 | 39.75033 | -110.54079 | 22403 ft | 255 kts | 296° |
| 2026-04-24 04:18 | 39.75827 | -110.56144 | 22211 ft | 254 kts | 296° |
| 2026-04-24 04:19 | 39.76614 | -110.58194 | 22024 ft | 253 kts | 296° |
| 2026-04-24 04:19 | 39.77387 | -110.60215 | 21842 ft | 252 kts | 296° |
| 2026-04-24 04:19 | 39.78169 | -110.62259 | 21658 ft | 252 kts | 296° |
| 2026-04-24 04:19 | 39.78947 | -110.64294 | 21502 ft | 251 kts | 296° |
| 2026-04-24 04:20 | 39.79723 | -110.66322 | 21321 ft | 250 kts | 296° |
| 2026-04-24 04:20 | 39.80497 | -110.68350 | 21134 ft | 249 kts | 296° |
| 2026-04-24 04:20 | 39.81268 | -110.70365 | 20960 ft | 249 kts | 296° |
| 2026-04-24 04:20 | 39.82038 | -110.72382 | 20778 ft | 249 kts | 296° |
| 2026-04-24 04:21 | 39.82808 | -110.74401 | 20603 ft | 249 kts | 296° |
| 2026-04-24 04:21 | 39.83575 | -110.76416 | 20426 ft | 248 kts | 296° |
| 2026-04-24 04:21 | 39.84342 | -110.78432 | 20247 ft | 248 kts | 296° |
| 2026-04-24 04:21 | 39.85107 | -110.80442 | 20073 ft | 248 kts | 296° |
| 2026-04-24 04:22 | 39.85871 | -110.82453 | 19890 ft | 248 kts | 296° |
| 2026-04-24 04:22 | 39.86633 | -110.84459 | 19741 ft | 246 kts | 296° |
| 2026-04-24 04:22 | 39.87389 | -110.86451 | 19572 ft | 244 kts | 296° |
| 2026-04-24 04:22 | 39.88140 | -110.88431 | 19401 ft | 243 kts | 296° |
| 2026-04-24 04:23 | 39.88875 | -110.90371 | 19230 ft | 242 kts | 296° |
| 2026-04-24 04:23 | 39.89622 | -110.92340 | 19073 ft | 242 kts | 296° |
| 2026-04-24 04:23 | 39.90370 | -110.94309 | 18905 ft | 242 kts | 296° |
| 2026-04-24 04:23 | 39.91114 | -110.96278 | 18724 ft | 242 kts | 296° |
| 2026-04-24 04:24 | 39.91855 | -110.98244 | 18553 ft | 241 kts | 296° |
| 2026-04-24 04:24 | 39.92595 | -111.00202 | 18398 ft | 241 kts | 296° |
| 2026-04-24 04:24 | 39.93334 | -111.02159 | 18221 ft | 241 kts | 296° |
| 2026-04-24 04:24 | 39.94070 | -111.04109 | 18029 ft | 239 kts | 296° |
| 2026-04-24 04:25 | 39.94801 | -111.06047 | 17832 ft | 238 kts | 296° |
| 2026-04-24 04:25 | 39.95528 | -111.07976 | 17652 ft | 237 kts | 296° |
| 2026-04-24 04:25 | 39.96255 | -111.09905 | 17473 ft | 237 kts | 296° |
| 2026-04-24 04:25 | 39.96983 | -111.11841 | 17282 ft | 238 kts | 296° |
| 2026-04-24 04:26 | 39.97713 | -111.13785 | 17106 ft | 240 kts | 296° |
| 2026-04-24 04:26 | 39.98447 | -111.15731 | 17025 ft | 238 kts | 296° |
| 2026-04-24 04:26 | 39.99170 | -111.17651 | 17028 ft | 235 kts | 296° |
| 2026-04-24 04:26 | 39.99885 | -111.19564 | 17028 ft | 234 kts | 296° |
| 2026-04-24 04:27 | 40.00598 | -111.21467 | 17039 ft | 233 kts | 296° |
| 2026-04-24 04:27 | 40.01300 | -111.23336 | 17009 ft | 231 kts | 296° |
| 2026-04-24 04:27 | 40.02003 | -111.25211 | 17017 ft | 229 kts | 296° |
| 2026-04-24 04:27 | 40.02703 | -111.27079 | 17014 ft | 229 kts | 296° |
| 2026-04-24 04:28 | 40.03401 | -111.28944 | 17006 ft | 228 kts | 296° |
| 2026-04-24 04:28 | 40.04096 | -111.30803 | 17007 ft | 228 kts | 296° |
| 2026-04-24 04:28 | 40.04800 | -111.32689 | 17009 ft | 233 kts | 296° |
| 2026-04-24 04:28 | 40.05515 | -111.34603 | 17025 ft | 234 kts | 296° |
| 2026-04-24 04:29 | 40.06235 | -111.36536 | 17013 ft | 239 kts | 296° |
| 2026-04-24 04:29 | 40.06967 | -111.38499 | 17020 ft | 242 kts | 296° |
| 2026-04-24 04:29 | 40.07706 | -111.40479 | 17017 ft | 242 kts | 296° |
| 2026-04-24 04:29 | 40.08447 | -111.42463 | 17007 ft | 244 kts | 296° |
| 2026-04-24 04:30 | 40.09189 | -111.44456 | 17007 ft | 244 kts | 296° |
| 2026-04-24 04:30 | 40.09931 | -111.46448 | 17004 ft | 244 kts | 295° |
| 2026-04-24 04:30 | 40.10671 | -111.48441 | 16992 ft | 244 kts | 295° |
| 2026-04-24 04:30 | 40.11412 | -111.50435 | 16999 ft | 243 kts | 296° |
| 2026-04-24 04:31 | 40.12143 | -111.52408 | 17001 ft | 245 kts | 296° |
| 2026-04-24 04:31 | 40.12888 | -111.54412 | 16992 ft | 245 kts | 296° |
| 2026-04-24 04:31 | 40.13634 | -111.56420 | 17027 ft | 246 kts | 296° |
| 2026-04-24 04:31 | 40.14391 | -111.58466 | 17034 ft | 246 kts | 295° |
| 2026-04-24 04:32 | 40.15125 | -111.60448 | 17034 ft | 246 kts | 295° |
| 2026-04-24 04:32 | 40.15873 | -111.62468 | 17033 ft | 246 kts | 295° |
| 2026-04-24 04:32 | 40.16617 | -111.64480 | 17033 ft | 245 kts | 295° |
| 2026-04-24 04:32 | 40.17358 | -111.66487 | 17033 ft | 245 kts | 295° |
| 2026-04-24 04:33 | 40.18135 | -111.68459 | 17028 ft | 244 kts | 303° |
| 2026-04-24 04:33 | 40.19404 | -111.69955 | 16899 ft | 253 kts | 324° |
| 2026-04-24 04:33 | 40.20983 | -111.71070 | 16642 ft | 261 kts | 328° |
| 2026-04-24 04:33 | 40.22580 | -111.72231 | 16386 ft | 264 kts | 325° |
| 2026-04-24 04:34 | 40.24133 | -111.73548 | 16131 ft | 266 kts | 322° |
| 2026-04-24 04:34 | 40.25664 | -111.74913 | 15878 ft | 267 kts | 322° |
| 2026-04-24 04:34 | 40.27216 | -111.76254 | 15624 ft | 267 kts | 323° |
| 2026-04-24 04:34 | 40.28782 | -111.77582 | 15377 ft | 266 kts | 323° |
| 2026-04-24 04:35 | 40.30329 | -111.78901 | 15147 ft | 265 kts | 323° |
| 2026-04-24 04:35 | 40.31849 | -111.80208 | 14882 ft | 264 kts | 324° |
| 2026-04-24 04:35 | 40.33380 | -111.81524 | 14633 ft | 263 kts | 324° |
| 2026-04-24 04:35 | 40.34912 | -111.82839 | 14387 ft | 263 kts | 324° |
| 2026-04-24 04:36 | 40.36437 | -111.84148 | 14144 ft | 262 kts | 324° |
| 2026-04-24 04:36 | 40.37960 | -111.85458 | 13902 ft | 262 kts | 324° |
| 2026-04-24 04:36 | 40.39478 | -111.86763 | 13710 ft | 258 kts | 324° |
| 2026-04-24 04:36 | 40.40966 | -111.88043 | 13515 ft | 253 kts | 324° |
| 2026-04-24 04:37 | 40.42430 | -111.89303 | 13326 ft | 250 kts | 324° |
| 2026-04-24 04:37 | 40.43391 | -111.90132 | 13205 ft | 249 kts | 324° |
| 2026-04-24 04:37 | 40.44836 | -111.91377 | 13020 ft | 247 kts | 324° |
| 2026-04-24 04:37 | 40.46267 | -111.92612 | 12841 ft | 246 kts | 324° |
| 2026-04-24 04:38 | 40.47703 | -111.93850 | 12677 ft | 246 kts | 323° |
| 2026-04-24 04:38 | 40.49131 | -111.95083 | 12499 ft | 245 kts | 323° |
| 2026-04-24 04:38 | 40.50556 | -111.96313 | 12316 ft | 245 kts | 323° |
| 2026-04-24 04:38 | 40.51978 | -111.97542 | 12145 ft | 244 kts | 323° |
| 2026-04-24 04:39 | 40.53399 | -111.98771 | 12023 ft | 243 kts | 323° |
| 2026-04-24 04:39 | 40.54779 | -111.99964 | 12023 ft | 238 kts | 323° |
| 2026-04-24 04:39 | 40.56155 | -112.01154 | 12022 ft | 235 kts | 323° |
| 2026-04-24 04:39 | 40.57516 | -112.02334 | 12022 ft | 233 kts | 323° |
| 2026-04-24 04:40 | 40.58868 | -112.03504 | 12021 ft | 232 kts | 323° |
| 2026-04-24 04:40 | 40.60213 | -112.04671 | 12021 ft | 231 kts | 323° |
| 2026-04-24 04:40 | 40.61554 | -112.05834 | 12021 ft | 230 kts | 323° |
| 2026-04-24 04:40 | 40.62995 | -112.06735 | 12013 ft | 234 kts | 343° |
| 2026-04-24 04:41 | 40.64644 | -112.06699 | 12015 ft | 241 kts | 2° |
| 2026-04-24 04:41 | 40.66316 | -112.06290 | 11854 ft | 248 kts | 5° |
| 2026-04-24 04:41 | 40.68025 | -112.05914 | 11597 ft | 249 kts | 1° |
| 2026-04-24 04:41 | 40.69712 | -112.05731 | 11260 ft | 235 kts | 358° |
| 2026-04-24 04:42 | 40.71302 | -112.05600 | 10937 ft | 222 kts | 358° |
| 2026-04-24 04:42 | 40.72806 | -112.05476 | 10609 ft | 211 kts | 358° |
| 2026-04-24 04:42 | 40.74224 | -112.05361 | 10291 ft | 204 kts | 358° |
| 2026-04-24 04:42 | 40.75634 | -112.05250 | 9966 ft | 204 kts | 358° |
| 2026-04-24 04:43 | 40.77061 | -112.05139 | 9639 ft | 207 kts | 358° |
| 2026-04-24 04:43 | 40.78510 | -112.05040 | 9301 ft | 209 kts | 358° |
| 2026-04-24 04:43 | 40.79968 | -112.04958 | 8967 ft | 210 kts | 358° |
| 2026-04-24 04:43 | 40.81439 | -112.04885 | 8633 ft | 212 kts | 358° |
| 2026-04-24 04:44 | 40.82915 | -112.04814 | 8307 ft | 213 kts | 359° |
| 2026-04-24 04:44 | 40.84389 | -112.04758 | 7980 ft | 213 kts | 357° |
| 2026-04-24 04:44 | 40.85872 | -112.04695 | 7661 ft | 212 kts | 359° |
| 2026-04-24 04:44 | 40.87345 | -112.04644 | 7342 ft | 212 kts | 359° |
| 2026-04-24 04:45 | 40.88822 | -112.04600 | 7027 ft | 212 kts | 359° |
| 2026-04-24 04:45 | 40.90264 | -112.04583 | 6995 ft | 202 kts | 356° |
| 2026-04-24 04:45 | 40.91641 | -112.04568 | 6988 ft | 195 kts | 357° |
| 2026-04-24 04:45 | 40.92970 | -112.04387 | 6982 ft | 194 kts | 19° |
| 2026-04-24 04:46 | 40.93974 | -112.03289 | 6969 ft | 193 kts | 58° |
| 2026-04-24 04:46 | 40.94277 | -112.01561 | 6733 ft | 197 kts | 97° |
| 2026-04-24 04:46 | 40.93713 | -111.99943 | 6492 ft | 197 kts | 136° |
| 2026-04-24 04:46 | 40.92623 | -111.98876 | 6242 ft | 197 kts | 149° |
| 2026-04-24 04:47 | 40.91434 | -111.97960 | 5991 ft | 197 kts | 152° |
| 2026-04-24 04:47 | 40.90268 | -111.97134 | 5929 ft | 184 kts | 156° |
| 2026-04-24 04:47 | 40.89114 | -111.96528 | 5803 ft | 170 kts | 161° |
| 2026-04-24 04:47 | 40.88043 | -111.96158 | 5712 ft | 153 kts | 174° |
| 2026-04-24 04:48 | 40.86968 | -111.96108 | 5436 ft | 153 kts | 180° |
| 2026-04-24 04:48 | 40.85966 | -111.96149 | 5458 ft | 134 kts | 183° |
| 2026-04-24 04:48 | 40.85073 | -111.96200 | 5353 ft | 129 kts | 181° |
| 2026-04-24 04:48 | 40.84161 | -111.96202 | 5155 ft | 131 kts | 180° |
| 2026-04-24 04:49 | 40.83283 | -111.96186 | 4896 ft | 124 kts | 178° |
| 2026-04-24 04:49 | 40.82522 | -111.96185 | 4802 ft | 100 kts | 179° |
| 2026-04-24 04:49 | 40.81829 | -111.96206 | 4636 ft | 98 kts | 182° |
| 2026-04-24 04:49 | 40.81153 | -111.96213 | 4533 ft | 95 kts | 180° |
| 2026-04-24 04:50 | 40.80485 | -111.96207 | 4380 ft | 97 kts | 179° |
| 2026-04-24 04:50 | 40.79813 | -111.96210 | 4249 ft | 94 kts | 179° |
| 2026-04-24 04:50 | 40.79235 | -111.96202 | 4226 ft | 71 kts | 180° |
| 2026-04-24 04:50 | 40.78874 | -111.96211 | 4228 ft | 37 kts | 180° |
| 2026-04-24 04:51 | 40.78675 | -111.96173 | 4229 ft | 24 kts | 146° |
| 2026-04-24 04:51 | 40.78596 | -111.96054 | 4227 ft | 10 kts | 126° |
| 2026-04-24 04:51 | 40.78519 | -111.96004 | 4227 ft | 16 kts | 179° |
| 2026-04-24 04:51 | 40.78396 | -111.96004 | 4227 ft | 20 kts | 180° |
| 2026-04-24 04:52 | 40.78246 | -111.96006 | 4226 ft | 23 kts | 180° |
| 2026-04-24 04:52 | 40.78074 | -111.96007 | 4227 ft | 24 kts | 180° |
| 2026-04-24 04:52 | 40.77967 | -111.96006 | 4249 ft | 11 kts | 181° |
| 2026-04-24 04:52 | 40.77886 | -111.95984 | 4249 ft | 13 kts | 101° |
| 2026-04-24 04:53 | 40.77842 | -111.95921 | 4249 ft | 7 kts | 147° |
| 2026-04-24 04:53 | 40.77785 | -111.95917 | 4249 ft | 3 kts | 182° |